Date,TemperatureHighF,TemperatureAvgF,TemperatureLowF,DewpointHighF,DewpointAvgF,DewpointLowF,HumidityHigh,HumidityAvg,HumidityLow,PressureMaxIn,PressureMinIn,WindSpeedMaxMPH,WindSpeedAvgMPH,GustSpeedMaxMPH,PrecipitationSumIn
2013-12-6,39,37,34,22,20,17,51,51,50,26.69,26.69,9,1,9,0.43
2013-12-7,33,31,30,17,12,8,51,44,36,26.69,26.69,8,0,8,0.00
2013-12-8,50,37,30,31,19,9,51,49,41,26.69,26.69,0,0,0,0.04
2013-12-9,50,38,31,31,21,13,51,50,46,26.69,26.69,8,0,8,0.31
2013-12-10,34,30,27,13,7,1,50,38,30,26.69,26.69,10,1,10,0.00
2013-12-11,44,31,23,13,7,0,49,36,28,26.69,26.69,10,0,10,0.00
2013-12-12,33,26,20,6,0,-4,34,32,31,26.69,26.69,8,0,8,0.00
2013-12-13,46,33,22,14,6,-3,33,30,28,26.69,26.69,0,0,0,0.04
2013-12-14,50,42,36,31,21,8,50,44,29,26.69,26.69,13,1,13,0.47
2013-12-15,37,32,30,20,12,6,51,44,35,26.69,26.69,12,2,12,0.00
2013-12-16,47,33,30,16,12,10,45,41,28,26.69,26.69,6,0,6,0.00
2013-12-21,68,67,65,43,39,37,44,37,32,26.69,25.28,8,0,8,0.00
2013-12-22,68,59,57,40,38,30,47,45,26,26.69,26.69,17,0,17,1.06
2013-12-24,28,23,19,1,-2,-5,33,32,31,28.82,26.69,6,0,0,0.00
2013-12-25,41,28,16,11,2,-6,41,33,29,26.69,26.69,8,0,8,0.00
2013-12-26,42,36,30,12,7,2,32,30,29,26.69,26.69,8,0,8,0.00
2013-12-27,49,36,25,17,8,2,41,31,27,26.69,26.69,0,0,0,0.00
2013-12-28,47,39,32,19,11,5,46,31,27,26.69,26.69,0,0,0,0.16
2013-12-29,45,40,36,27,23,19,50,49,46,26.69,26.69,12,0,12,0.59
2013-12-30,36,32,30,19,13,9,51,46,40,26.69,26.69,8,0,8,0.00
2013-12-31,38,30,24,10,6,1,49,36,29,26.69,26.69,8,0,8,0.00